Time;durP1;ratioP1;P1;durP2;ratioP2;P2;SDS_P1;SDS_P2;PMS_P1;PMS_P2;Temp;Humidity;BMP_temperature;BMP_pressure;BME280_temperature;BME280_humidity;BME280_pressure;Samples;Min_cycle;Max_cycle;Signal;HPM_P1;HPM_P2
2022/12/31 00:00:28;;;;;;;;;0.00;0.00;;;;;15.46;88.49;100576.31;4980533;28;46372;-87
2022/12/31 00:02:53;;;;;;;;;2.50;0.00;;;;;15.40;88.45;100574.03;4997443;28;51518;-88
2022/12/31 00:05:19;;;;;;;;;0.00;0.00;;;;;15.39;88.85;100574.09;4980369;28;48791;-88
2022/12/31 00:07:44;;;;;;;;;1.00;0.00;;;;;15.37;89.09;100574.16;4980544;28;45352;-88
2022/12/31 00:10:09;;;;;;;;;0.00;0.00;;;;;15.35;89.10;100583.88;4963975;28;47252;-88
2022/12/31 00:12:35;;;;;;;;;1.00;0.00;;;;;15.33;89.21;100575.25;4980009;28;45299;-88
2022/12/31 00:15:00;;;;;;;;;0.00;0.00;;;;;15.32;89.08;100575.34;4979650;28;56618;-88
2022/12/31 00:17:25;;;;;;;;;0.50;0.00;;;;;15.33;88.72;100561.31;4979705;28;56160;-88
2022/12/31 00:19:51;;;;;;;;;0.00;0.00;;;;;15.33;88.81;100577.03;4980033;28;47232;-88
2022/12/31 00:22:16;;;;;;;;;0.25;0.25;;;;;15.33;88.81;100577.03;4980016;28;45495;-88
2022/12/31 00:24:41;;;;;;;;;0.00;0.00;;;;;15.34;88.33;100582.22;4979782;28;57763;-89
2022/12/31 00:27:07;;;;;;;;;1.00;0.00;;;;;15.34;87.94;100582.22;4980083;28;45617;-87
2022/12/31 00:29:32;;;;;;;;;0.25;0.00;;;;;15.36;88.11;100596.09;4980146;28;46415;-89
2022/12/31 00:31:57;;;;;;;;;0.00;0.00;;;;;15.40;87.98;100591.53;4979168;28;62740;-88
2022/12/31 00:34:23;;;;;;;;;0.00;0.00;;;;;15.43;87.60;100592.22;4979952;28;50747;-88
2022/12/31 00:36:48;;;;;;;;;1.00;0.00;;;;;15.48;87.61;100597.22;4997378;28;45355;-88
2022/12/31 00:39:14;;;;;;;;;0.00;0.00;;;;;15.50;87.25;100605.88;4979714;28;50456;-90
2022/12/31 00:41:39;;;;;;;;;0.75;0.00;;;;;15.54;86.73;100609.19;4997189;28;45446;-88
2022/12/31 00:44:05;;;;;;;;;0.00;0.00;;;;;15.56;86.57;100610.78;4980187;28;45332;-89
2022/12/31 00:46:30;;;;;;;;;1.00;0.00;;;;;15.59;87.00;100607.16;4979539;28;45480;-88
2022/12/31 00:48:56;;;;;;;;;0.00;0.00;;;;;15.58;87.16;100608.09;4979957;28;46374;-89
2022/12/31 00:51:23;;;;;;;;;0.00;0.00;;;;;15.57;87.68;100616.91;4997767;28;45414;-89
2022/12/31 00:53:48;;;;;;;;;1.00;0.00;;;;;15.50;87.67;100608.47;4963951;28;45363;-89
2022/12/31 00:56:17;;;;;;;;;0.00;0.00;;;;;15.45;88.08;100615.72;4997578;28;45321;-89
2022/12/31 00:58:43;;;;;;;;;1.75;0.00;;;;;15.41;88.17;100607.19;4963087;28;47303;-89
2022/12/31 01:01:24;;;;;;;;;0.25;0.00;;;;;15.40;88.22;100604.66;4963124;28;45355;-88
2022/12/31 01:03:52;;;;;;;;;1.25;0.00;;;;;15.42;87.85;100619.38;4980049;28;45328;-88
2022/12/31 01:06:18;;;;;;;;;0.00;0.00;;;;;15.46;87.73;100623.53;4997458;28;45386;-88
2022/12/31 01:08:43;;;;;;;;;0.00;0.00;;;;;15.50;87.26;100637.34;4979676;28;45751;-88
2022/12/31 01:11:23;;;;;;;;;0.00;0.00;;;;;15.54;86.97;100631.00;4979714;28;45464;-88
2022/12/31 01:13:53;;;;;;;;;0.00;0.00;;;;;15.60;86.70;100625.47;4997284;28;45355;-88
2022/12/31 01:16:21;;;;;;;;;1.00;0.00;;;;;15.65;86.40;100640.94;4997054;28;45335;-88
2022/12/31 01:18:47;;;;;;;;;0.00;0.00;;;;;15.69;86.24;100621.50;4979288;28;45662;-88
2022/12/31 01:21:13;;;;;;;;;1.00;0.00;;;;;15.73;86.14;100630.94;4979275;28;45411;-88
2022/12/31 01:23:39;;;;;;;;;0.00;0.00;;;;;15.78;85.94;100630.69;4979216;28;51025;-88
2022/12/31 01:26:07;;;;;;;;;0.00;0.00;;;;;15.78;86.17;100642.03;4979230;28;45347;-87
2022/12/31 01:28:32;;;;;;;;;3.75;2.00;;;;;15.81;85.88;100643.66;4996650;28;45636;-88
2022/12/31 01:30:58;;;;;;;;;0.50;0.50;;;;;15.83;85.52;100652.31;4978610;28;53672;-88
2022/12/31 01:33:23;;;;;;;;;1.00;0.00;;;;;15.83;85.37;100644.44;4996934;28;45323;-88
2022/12/31 01:35:49;;;;;;;;;0.00;0.00;;;;;15.86;84.95;100646.88;4979183;28;45542;-88
2022/12/31 01:38:14;;;;;;;;;0.50;0.00;;;;;15.89;84.51;100657.22;4962437;28;47093;-88
2022/12/31 01:40:40;;;;;;;;;0.25;0.00;;;;;15.92;84.76;100649.22;4978802;28;45379;-88
2022/12/31 01:43:15;;;;;;;;;1.00;0.00;;;;;15.97;84.41;100660.31;4978970;28;45438;-90
2022/12/31 01:45:42;;;;;;;;;5.00;0.00;;;;;15.98;84.22;100662.00;4978611;28;45386;-88
2022/12/31 01:48:11;;;;;;;;;1.00;0.00;;;;;16.02;84.31;100665.31;4962758;28;48598;-88
2022/12/31 01:50:38;;;;;;;;;0.00;0.00;;;;;16.06;84.50;100658.97;4962513;28;46153;-88
2022/12/31 01:53:04;;;;;;;;;0.00;0.00;;;;;16.08;83.96;100662.34;4996743;28;45425;-88
2022/12/31 01:55:37;;;;;;;;;0.00;0.00;;;;;16.08;83.90;100670.22;4978984;28;45376;-89
2022/12/31 01:58:24;;;;;;;;;0.25;0.00;;;;;16.10;84.04;100672.78;4978010;28;45497;-88
2022/12/31 02:00:51;;;;;;;;;0.00;0.00;;;;;16.09;83.88;100682.44;4978419;28;45437;-88
2022/12/31 02:03:16;;;;;;;;;0.00;0.00;;;;;16.10;83.99;100681.50;4962301;28;45410;-89
2022/12/31 02:05:50;;;;;;;;;1.00;0.00;;;;;16.12;84.03;100673.53;4996503;28;45533;-88
2022/12/31 02:08:16;;;;;;;;;0.75;0.00;;;;;16.11;83.85;100682.38;4978535;28;46533;-88
2022/12/31 02:10:41;;;;;;;;;0.00;0.00;;;;;16.11;83.59;100690.25;4978725;28;45501;-88
2022/12/31 02:13:07;;;;;;;;;0.00;0.00;;;;;16.13;83.54;100688.38;4962604;28;45327;-88
2022/12/31 02:15:53;;;;;;;;;0.00;0.00;;;;;16.11;84.14;100677.13;4977933;28;52893;-88
2022/12/31 02:18:35;;;;;;;;;0.00;0.00;;;;;16.08;83.40;100685.16;4978383;28;45667;-88
2022/12/31 02:21:12;;;;;;;;;1.75;0.00;;;;;16.09;83.33;100690.31;4978654;28;45664;-88
2022/12/31 02:23:53;;;;;;;;;0.75;0.00;;;;;16.10;83.55;100681.50;4996182;28;45408;-88
2022/12/31 02:26:41;;;;;;;;;0.75;0.00;;;;;16.12;83.50;100689.28;4978420;28;45499;-87
2022/12/31 02:29:25;;;;;;;;;1.00;0.00;;;;;16.13;83.25;100685.75;4978032;28;47508;-88
2022/12/31 02:31:59;;;;;;;;;0.00;0.00;;;;;16.14;83.19;100690.06;4996125;28;45679;-88
2022/12/31 02:34:36;;;;;;;;;1.00;0.00;;;;;16.13;82.87;100686.59;4978486;28;45332;-88
2022/12/31 02:37:05;;;;;;;;;0.00;0.00;;;;;16.11;82.90;100691.09;4978021;28;45530;-89
2022/12/31 02:39:31;;;;;;;;;0.00;0.00;;;;;16.12;83.10;100689.28;4978259;28;47375;-88
2022/12/31 02:41:58;;;;;;;;;0.00;0.00;;;;;16.13;83.01;100694.47;4963795;28;45570;-89
2022/12/31 02:44:28;;;;;;;;;0.00;0.00;;;;;16.12;82.84;100697.19;4996850;28;45467;-88
2022/12/31 02:47:09;;;;;;;;;1.00;1.00;;;;;16.11;82.75;100698.97;4996365;28;45240;-89
2022/12/31 02:49:43;;;;;;;;;0.00;0.00;;;;;16.12;82.58;100689.28;4996358;28;47293;-88
2022/12/31 02:52:27;;;;;;;;;0.00;0.00;;;;;16.14;82.26;100727.69;4978326;28;45639;-88
2022/12/31 02:55:04;;;;;;;;;2.00;0.00;;;;;16.17;82.09;100703.03;4978255;28;45359;-88
2022/12/31 02:57:39;;;;;;;;;0.00;0.00;;;;;16.20;81.79;100698.47;4977950;28;45420;-88
2022/12/31 03:02:58;;;;;;;;;0.00;0.00;;;;;16.27;81.56;100722.66;4995517;28;45205;-88
2022/12/31 03:05:27;;;;;;;;;0.00;0.00;;;;;16.27;81.18;100709.50;4962010;28;45412;-88
2022/12/31 03:07:52;;;;;;;;;0.00;0.00;;;;;16.28;81.24;100713.81;4978284;28;45454;-89
2022/12/31 03:10:18;;;;;;;;;0.00;0.00;;;;;16.31;80.63;100715.47;4962761;28;58588;-88
2022/12/31 03:12:47;;;;;;;;;0.50;0.00;;;;;16.30;80.98;100705.88;4998518;28;45291;-88
2022/12/31 03:15:30;;;;;;;;;0.00;0.00;;;;;16.35;80.84;100743.25;4965379;28;45308;-89
2022/12/31 03:18:09;;;;;;;;;0.00;0.00;;;;;16.36;80.68;100706.41;4998986;28;45500;-87
2022/12/31 03:23:28;;;;;;;;;0.00;0.00;;;;;16.38;80.04;100712.41;4983766;28;45625;-88
2022/12/31 03:25:55;;;;;;;;;0.75;0.00;;;;;16.39;80.04;100727.22;4981040;28;45363;-88
2022/12/31 03:28:23;;;;;;;;;2.00;0.00;;;;;16.38;79.87;100725.53;4981147;28;45501;-88
2022/12/31 03:30:54;;;;;;;;;0.00;0.00;;;;;16.39;79.99;100735.09;4964472;28;47389;-87
2022/12/31 03:33:21;;;;;;;;;0.00;0.00;;;;;16.41;79.55;100721.91;4980899;28;45577;-88
2022/12/31 03:35:47;;;;;;;;;0.50;0.00;;;;;16.39;79.44;100715.88;4980927;28;45457;-88
2022/12/31 03:38:13;;;;;;;;;1.00;0.00;;;;;16.39;79.65;100721.13;4981103;28;45450;-88
2022/12/31 03:40:41;;;;;;;;;0.00;0.00;;;;;16.39;79.35;100729.84;4980391;28;47040;-89
2022/12/31 03:43:07;;;;;;;;;2.00;0.00;;;;;16.38;79.39;100724.69;4980674;28;45275;-87
2022/12/31 03:45:33;;;;;;;;;1.00;0.00;;;;;16.36;79.13;100737.91;4981022;28;45442;-88
2022/12/31 03:47:59;;;;;;;;;0.00;0.00;;;;;16.39;79.73;100736.91;4998362;28;45480;-88
2022/12/31 03:50:25;;;;;;;;;0.00;0.00;;;;;16.38;79.29;100725.53;4980476;28;46415;-87
2022/12/31 03:52:50;;;;;;;;;0.00;0.00;;;;;16.39;79.11;100737.72;4980611;28;45465;-87
2022/12/31 03:55:16;;;;;;;;;0.00;0.00;;;;;16.40;78.96;100733.31;4979946;28;53032;-88
2022/12/31 03:57:41;;;;;;;;;0.00;0.00;;;;;16.40;78.88;100734.19;4964502;28;45483;-88
2022/12/31 04:00:09;;;;;;;;;1.00;0.00;;;;;16.41;78.61;100732.41;4980472;28;46134;-87
2022/12/31 04:02:35;;;;;;;;;0.00;0.00;;;;;16.41;78.97;100749.00;4964095;28;45297;-87
2022/12/31 04:05:00;;;;;;;;;0.00;0.00;;;;;16.42;78.32;100740.22;4980330;28;55305;-88
2022/12/31 04:07:26;;;;;;;;;0.00;0.00;;;;;16.39;78.09;100731.66;4964366;28;45453;-88
2022/12/31 04:09:51;;;;;;;;;0.00;0.00;;;;;16.38;78.07;100743.06;4979632;28;60696;-88
2022/12/31 04:12:16;;;;;;;;;0.00;0.00;;;;;16.35;78.25;100730.13;4963531;28;61565;-88
2022/12/31 04:14:42;;;;;;;;;0.00;0.00;;;;;16.35;78.18;100723.06;4995961;28;62897;-88
2022/12/31 04:17:07;;;;;;;;;0.00;0.00;;;;;16.33;78.19;100724.94;4980444;28;45641;-88
2022/12/31 04:19:32;;;;;;;;;0.00;0.00;;;;;16.33;78.24;100731.97;4997838;28;46181;-88
2022/12/31 04:21:58;;;;;;;;;0.00;0.00;;;;;16.32;78.52;100717.13;4979408;28;54166;-89
2022/12/31 04:24:23;;;;;;;;;0.00;0.00;;;;;16.31;78.19;100713.66;4980216;28;45388;-88
2022/12/31 04:26:49;;;;;;;;;0.00;0.00;;;;;16.30;78.47;100714.59;4980520;28;45363;-89
2022/12/31 04:29:14;;;;;;;;;0.00;0.00;;;;;16.31;77.95;100720.72;4980268;28;45440;-88
2022/12/31 04:31:39;;;;;;;;;1.50;0.25;;;;;16.30;78.45;100761.88;4980459;28;67723;-88
2022/12/31 04:34:05;;;;;;;;;4.25;0.00;;;;;16.29;78.58;100759.31;4980687;28;45440;-87
2022/12/31 04:36:30;;;;;;;;;1.25;0.00;;;;;16.31;78.06;100746.97;4979160;28;54409;-88
2022/12/31 04:38:56;;;;;;;;;0.00;0.00;;;;;16.31;77.84;100742.56;4996930;28;51231;-87
2022/12/31 04:41:22;;;;;;;;;1.67;0.00;;;;;16.32;78.28;100746.88;4979771;28;45439;-87
2022/12/31 04:43:53;;;;;;;;;0.00;0.00;;;;;16.33;77.93;100743.31;4997627;28;45291;-87
2022/12/31 04:46:22;;;;;;;;;1.00;0.00;;;;;16.33;77.74;100738.06;4963403;28;45419;-88
2022/12/31 04:48:47;;;;;;;;;1.50;1.00;;;;;16.32;78.19;100733.72;4963402;28;47322;-87
2022/12/31 04:51:13;;;;;;;;;0.75;0.00;;;;;16.32;78.11;100738.16;4979667;28;45378;-87
2022/12/31 04:53:38;;;;;;;;;0.00;0.00;;;;;16.30;77.73;100738.22;4997131;28;45299;-87
2022/12/31 04:56:04;;;;;;;;;1.00;1.00;;;;;16.31;78.03;100732.06;4963620;28;45366;-87
2022/12/31 04:58:30;;;;;;;;;0.00;0.00;;;;;16.32;77.91;100733.72;4979757;28;45483;-89
2022/12/31 05:00:55;;;;;;;;;1.00;0.00;;;;;16.34;77.58;100731.88;4979899;28;45347;-89
2022/12/31 05:03:23;;;;;;;;;0.50;0.00;;;;;16.33;77.87;100730.19;4963733;28;45428;-88
2022/12/31 05:05:49;;;;;;;;;1.25;0.00;;;;;16.35;77.73;100741.47;4963556;28;45391;-89
2022/12/31 05:08:15;;;;;;;;;0.75;0.75;;;;;16.35;77.58;100766.88;4996928;28;46582;-87
2022/12/31 05:10:41;;;;;;;;;2.00;0.00;;;;;16.38;77.92;100750.94;4979303;28;45699;-87
2022/12/31 05:13:06;;;;;;;;;2.00;0.00;;;;;16.38;77.89;100764.09;4997548;28;45362;-88
2022/12/31 05:15:32;;;;;;;;;1.00;0.00;;;;;16.38;77.51;100766.72;4996690;28;62175;-91
2022/12/31 05:17:57;;;;;;;;;0.00;0.00;;;;;16.38;77.64;100769.34;4963570;28;47319;-89
2022/12/31 05:20:23;;;;;;;;;0.00;0.00;;;;;16.39;77.43;100779.78;4963478;28;46077;-88
2022/12/31 05:22:48;;;;;;;;;2.00;0.25;;;;;16.39;77.51;100769.25;4996143;28;57956;-89
2022/12/31 05:25:13;;;;;;;;;0.75;0.75;;;;;16.40;77.26;100770.09;4963417;28;45620;-89
2022/12/31 05:27:39;;;;;;;;;1.00;0.00;;;;;16.39;76.95;100769.25;4997024;28;45347;-89
2022/12/31 05:30:05;;;;;;;;;0.00;0.00;;;;;16.38;77.44;100790.34;4979459;28;45337;-89
2022/12/31 05:32:31;;;;;;;;;1.00;1.00;;;;;16.34;77.17;100775.69;4962409;28;45309;-88
2022/12/31 05:34:58;;;;;;;;;2.75;0.00;;;;;16.34;77.21;100780.94;4963102;28;45442;-88
2022/12/31 05:37:24;;;;;;;;;1.00;1.00;;;;;16.33;77.21;100787.13;4978702;28;46560;-89
2022/12/31 05:39:49;;;;;;;;;1.00;0.00;;;;;16.32;77.37;100791.53;4979306;28;45409;-88
2022/12/31 05:42:14;;;;;;;;;0.25;0.00;;;;;16.33;77.25;100777.47;4962299;28;58424;-89
2022/12/31 05:44:40;;;;;;;;;1.00;0.00;;;;;16.34;77.13;100792.28;4996782;28;45357;-89
2022/12/31 05:47:05;;;;;;;;;2.00;0.00;;;;;16.33;77.11;100787.97;4995933;28;63783;-88
2022/12/31 05:49:30;;;;;;;;;1.25;0.00;;;;;16.32;77.53;100788.06;4962744;28;45969;-88
2022/12/31 05:51:56;;;;;;;;;2.25;0.00;;;;;16.33;77.25;100785.34;4978927;28;45440;-89
2022/12/31 05:54:21;;;;;;;;;0.25;0.25;;;;;16.35;76.71;100794.00;4978876;28;49206;-89
2022/12/31 05:56:46;;;;;;;;;1.00;1.00;;;;;16.36;76.88;100782.56;4978508;28;58305;-88
2022/12/31 05:59:12;;;;;;;;;1.00;0.00;;;;;16.34;76.93;100789.66;4962263;28;63225;-88
2022/12/31 06:01:37;;;;;;;;;1.00;0.00;;;;;16.33;76.78;100795.84;4962477;28;53952;-88
2022/12/31 06:04:03;;;;;;;;;1.00;0.00;;;;;16.33;76.56;100790.59;4978849;28;45374;-88
2022/12/31 06:06:28;;;;;;;;;1.00;0.00;;;;;16.33;76.43;100793.22;4978629;28;47737;-88
2022/12/31 06:08:53;;;;;;;;;0.00;0.00;;;;;16.32;76.64;100817.78;4978440;28;60075;-88
2022/12/31 06:11:19;;;;;;;;;1.00;1.00;;;;;16.32;76.66;100806.44;4996158;28;45931;-88
2022/12/31 06:13:44;;;;;;;;;2.50;0.00;;;;;16.30;76.75;100803.06;4961975;28;57603;-89
2022/12/31 06:16:10;;;;;;;;;1.75;0.25;;;;;16.29;76.55;100803.97;4996202;28;46433;-88
2022/12/31 06:18:36;;;;;;;;;0.00;0.00;;;;;16.28;76.36;100815.41;4978747;28;48086;-88
2022/12/31 06:21:01;;;;;;;;;0.50;0.00;;;;;16.25;76.51;100801.50;4978522;28;45434;-87
2022/12/31 06:23:27;;;;;;;;;0.00;0.00;;;;;16.25;76.56;100812.03;4978767;28;45678;-87
2022/12/31 06:25:52;;;;;;;;;2.75;0.00;;;;;16.26;76.78;100813.69;4961615;28;68141;-87
2022/12/31 06:28:17;;;;;;;;;0.00;0.00;;;;;16.28;76.57;100828.53;4961865;28;55024;-88
2022/12/31 06:30:43;;;;;;;;;0.00;0.00;;;;;16.29;76.84;100830.22;4978230;28;54916;-87
2022/12/31 06:33:08;;;;;;;;;0.00;0.00;;;;;16.29;76.64;100825.84;4962351;28;48692;-88
2022/12/31 06:35:33;;;;;;;;;0.25;0.00;;;;;16.29;76.45;100838.97;4961737;28;55320;-88
2022/12/31 06:37:59;;;;;;;;;1.00;1.00;;;;;16.26;75.73;100845.22;4978190;28;46122;-87
2022/12/31 06:40:24;;;;;;;;;0.75;0.00;;;;;16.23;77.03;100827.00;4995758;28;53652;-89
2022/12/31 06:42:50;;;;;;;;;3.00;1.00;;;;;16.25;76.92;100826.91;4975021;28;45531;-88
2022/12/31 06:45:15;;;;;;;;;0.00;0.00;;;;;16.23;76.39;100837.53;4962022;28;47124;-88
2022/12/31 06:47:40;;;;;;;;;2.00;0.00;;;;;16.24;76.56;100833.09;4962040;28;51257;-87
2022/12/31 06:50:06;;;;;;;;;2.00;0.00;;;;;16.24;76.35;100848.88;4962210;28;45496;-88
2022/12/31 06:52:32;;;;;;;;;0.75;0.75;;;;;16.26;76.21;100855.72;4962212;28;45523;-88
2022/12/31 06:54:58;;;;;;;;;0.50;0.00;;;;;16.26;76.34;100847.00;4962215;28;47309;-88
2022/12/31 06:57:23;;;;;;;;;2.75;0.00;;;;;16.26;76.27;100858.34;4962301;28;45855;-88
2022/12/31 06:59:49;;;;;;;;;0.00;0.00;;;;;16.25;76.00;100855.78;4946055;28;45312;-88
2022/12/31 07:02:45;;;;;;;;;3.00;0.00;;;;;16.25;76.40;100859.28;4979576;28;45291;-88
2022/12/31 07:05:23;;;;;;;;;0.00;0.00;;;;;16.26;76.19;100857.50;4979116;28;45788;-88
2022/12/31 07:07:57;;;;;;;;;2.00;0.00;;;;;16.23;76.48;100852.41;4962199;28;45889;-88
2022/12/31 07:10:37;;;;;;;;;2.00;1.00;;;;;16.22;76.39;100855.97;4962332;28;45399;-89
2022/12/31 07:13:13;;;;;;;;;1.75;0.00;;;;;16.22;76.46;100846.31;4962171;28;45488;-88
2022/12/31 07:15:59;;;;;;;;;2.00;0.75;;;;;16.21;76.38;100864.75;4979561;28;46807;-88
2022/12/31 07:18:42;;;;;;;;;0.00;0.00;;;;;16.22;76.35;100855.97;4978558;28;45602;-87
2022/12/31 07:21:12;;;;;;;;;2.25;1.00;;;;;16.22;76.39;100853.34;4962227;28;45323;-88
2022/12/31 07:23:38;;;;;;;;;0.00;0.00;;;;;16.21;76.15;100849.88;4961436;28;45645;-88
2022/12/31 07:26:15;;;;;;;;;1.50;0.00;;;;;16.20;76.31;100856.03;4979439;28;46646;-87
2022/12/31 07:28:54;;;;;;;;;2.00;0.50;;;;;16.17;76.18;100856.19;4961660;28;45792;-88
2022/12/31 07:31:39;;;;;;;;;0.00;0.00;;;;;16.17;76.39;100853.56;4962184;28;45360;-88
2022/12/31 07:34:50;;;;;;;;;2.75;1.00;;;;;16.15;76.54;100865.94;4961568;28;45451;-87
2022/12/31 07:37:21;;;;;;;;;2.00;1.00;;;;;16.14;76.66;100874.75;4971566;28;45451;-88
2022/12/31 07:40:01;;;;;;;;;1.00;1.00;;;;;16.13;76.61;100869.56;4981321;28;45271;-87
2022/12/31 07:42:35;;;;;;;;;1.50;0.50;;;;;16.12;76.51;100873.97;4981369;28;45537;-88
2022/12/31 07:45:26;;;;;;;;;2.00;1.00;;;;;16.13;76.34;100895.81;4965171;28;45565;-88
2022/12/31 07:47:55;;;;;;;;;2.75;1.00;;;;;16.09;76.43;100876.75;4980743;28;46570;-88
2022/12/31 07:50:20;;;;;;;;;2.75;0.00;;;;;16.10;76.42;100864.47;4998583;28;45680;-88
2022/12/31 07:52:46;;;;;;;;;1.00;1.00;;;;;16.08;76.63;100892.56;4981261;28;45379;-88
2022/12/31 07:55:11;;;;;;;;;1.00;1.00;;;;;16.06;76.18;100897.88;4997718;28;45270;-88
2022/12/31 07:58:05;;;;;;;;;0.00;0.00;;;;;16.04;76.47;100899.75;4998507;28;46680;-88
2022/12/31 08:00:31;;;;;;;;;3.00;1.00;;;;;16.04;76.41;100905.84;4997818;28;45754;-88
2022/12/31 08:03:25;;;;;;;;;2.75;1.00;;;;;16.04;76.09;100907.63;4980749;28;45517;-90
2022/12/31 08:06:11;;;;;;;;;6.00;2.25;;;;;16.06;76.05;100911.91;4918576;28;45603;-88
2022/12/31 08:08:54;;;;;;;;;4.00;1.00;;;;;16.08;75.70;100898.66;4918235;28;46827;-88
2022/12/31 08:11:42;;;;;;;;;3.50;1.25;;;;;16.07;75.79;100907.47;4902364;28;45659;-88
2022/12/31 08:14:12;;;;;;;;;1.00;1.00;;;;;16.08;75.42;100913.56;4887295;28;45386;-88
2022/12/31 08:16:38;;;;;;;;;3.00;1.00;;;;;16.11;76.17;100916.06;4886234;28;45973;-88
2022/12/31 08:19:04;;;;;;;;;2.00;0.75;;;;;16.11;75.44;100902.94;4918412;28;45570;-88
2022/12/31 08:21:47;;;;;;;;;1.00;1.00;;;;;16.09;75.45;100931.88;4918265;28;45574;-88
2022/12/31 08:24:50;;;;;;;;;2.00;1.00;;;;;16.08;75.65;100921.47;4918444;28;45346;-88
2022/12/31 08:27:34;;;;;;;;;0.00;0.00;;;;;16.09;75.62;100931.03;4919022;28;45369;-87
2022/12/31 08:30:14;;;;;;;;;1.75;1.00;;;;;16.09;75.30;100945.00;4917991;28;46156;-89
2022/12/31 08:32:47;;;;;;;;;1.25;1.25;;;;;16.06;75.38;100932.03;4902351;28;45755;-89
2022/12/31 08:35:33;;;;;;;;;1.00;1.00;;;;;16.08;75.21;100943.31;4902633;28;45405;-88
2022/12/31 08:38:08;;;;;;;;;1.50;1.00;;;;;16.06;75.09;100953.03;4918068;28;45430;-88
2022/12/31 08:41:08;;;;;;;;;2.75;1.00;;;;;16.04;75.35;100960.97;4918055;28;45701;-88
2022/12/31 08:43:48;;;;;;;;;1.00;1.00;;;;;16.07;75.05;100957.38;4892278;28;45387;-88
2022/12/31 08:46:22;;;;;;;;;5.00;2.00;;;;;16.06;75.41;100960.91;4883367;29;45457;-87
2022/12/31 08:48:48;;;;;;;;;1.75;1.75;;;;;16.01;74.93;100976.91;4883661;29;45558;-88
2022/12/31 08:51:18;;;;;;;;;2.00;2.00;;;;;16.01;75.23;100961.16;4883489;29;46996;-89
2022/12/31 08:53:44;;;;;;;;;4.00;1.00;;;;;16.02;75.30;100962.00;4882966;29;45621;-89
2022/12/31 08:56:20;;;;;;;;;2.25;1.75;;;;;16.01;75.29;100982.16;4898988;29;45330;-90
2022/12/31 08:59:04;;;;;;;;;3.00;1.00;;;;;15.96;75.21;100973.63;4898635;29;45271;-89
2022/12/31 09:01:46;;;;;;;;;1.50;1.50;;;;;15.93;75.22;100971.16;4898124;29;46904;-89
2022/12/31 09:04:20;;;;;;;;;3.00;1.50;;;;;15.95;75.52;100974.53;4882591;29;45761;-89
2022/12/31 09:10:18;;;;;;;;;3.75;1.00;;;;;15.92;75.24;100993.09;4906844;29;45432;-89
2022/12/31 09:13:22;;;;;;;;;1.25;1.00;;;;;15.96;75.29;100983.28;4905809;29;45484;-89
2022/12/31 09:15:57;;;;;;;;;2.50;1.00;;;;;16.01;74.95;100982.16;4882660;29;45834;-90
2022/12/31 09:18:23;;;;;;;;;1.75;1.00;;;;;16.09;75.26;100986.19;4883802;29;45349;-90
2022/12/31 09:20:48;;;;;;;;;2.25;2.00;;;;;16.12;74.70;100981.63;4939563;28;63251;-89
2022/12/31 09:23:14;;;;;;;;;1.50;1.50;;;;;16.16;74.31;100993.69;4960689;28;47320;-90
2022/12/31 09:25:56;;;;;;;;;2.00;1.75;;;;;16.15;74.38;100997.22;4960436;28;45329;-88
2022/12/31 09:28:51;;;;;;;;;3.00;1.25;;;;;16.18;74.08;100988.38;4959825;28;45367;-89
2022/12/31 09:31:21;;;;;;;;;1.00;1.00;;;;;16.14;73.59;100992.03;4898150;29;45323;-89
2022/12/31 09:34:00;;;;;;;;;3.00;1.00;;;;;16.10;73.69;100978.22;4897936;29;45488;-89
2022/12/31 09:36:31;;;;;;;;;2.00;0.75;;;;;16.13;73.31;100980.69;4888195;28;45326;-89
2022/12/31 09:39:02;;;;;;;;;4.75;2.00;;;;;16.08;73.26;100989.72;4921057;28;45432;-90
2022/12/31 09:41:48;;;;;;;;;3.00;1.00;;;;;16.04;73.98;100968.00;4901432;28;45542;-89
2022/12/31 09:44:53;;;;;;;;;2.75;1.00;;;;;16.06;73.61;100979.28;4917431;28;48574;-89
2022/12/31 09:47:56;;;;;;;;;0.75;0.50;;;;;16.09;73.38;100981.78;4916984;28;45646;-89
2022/12/31 09:50:47;;;;;;;;;5.50;3.00;;;;;16.06;72.98;100998.53;4917135;28;45550;-89
2022/12/31 09:53:24;;;;;;;;;4.25;2.00;;;;;16.04;73.08;101004.78;4917138;28;45647;-88
2022/12/31 09:55:55;;;;;;;;;2.50;1.00;;;;;16.04;72.87;101010.03;4916811;28;46869;-89
2022/12/31 09:58:54;;;;;;;;;4.75;2.00;;;;;16.01;73.01;101005.78;4916452;28;45473;-89
2022/12/31 10:01:41;;;;;;;;;1.00;1.00;;;;;16.03;73.07;100992.59;4916945;28;45285;-89
2022/12/31 10:04:47;;;;;;;;;2.00;0.75;;;;;16.09;73.15;101004.56;4923932;28;45210;-89
2022/12/31 10:07:21;;;;;;;;;2.50;1.25;;;;;16.09;72.58;101008.03;4931329;28;45910;-89
2022/12/31 10:10:02;;;;;;;;;2.00;0.75;;;;;16.10;72.90;101016.75;4965057;28;45644;-88
2022/12/31 10:12:33;;;;;;;;;2.75;1.25;;;;;16.11;71.87;101015.84;4977213;28;45422;-88
2022/12/31 10:15:07;;;;;;;;;2.00;1.00;;;;;16.15;72.25;101004.25;4977777;28;45521;-89
2022/12/31 10:18:10;;;;;;;;;2.00;2.00;;;;;16.24;71.72;100993.31;4959513;28;47012;-89
2022/12/31 10:20:49;;;;;;;;;2.75;1.50;;;;;16.32;71.49;100996.41;4983136;28;45558;-88
2022/12/31 10:23:51;;;;;;;;;5.75;1.00;;;;;16.38;71.21;100990.88;4982103;28;45391;-89
2022/12/31 10:26:27;;;;;;;;;4.75;1.00;;;;;16.51;71.43;100992.88;4972625;28;45640;-89
2022/12/31 10:29:13;;;;;;;;;2.00;2.00;;;;;16.55;70.20;100995.28;4965589;28;46178;-89
2022/12/31 10:31:49;;;;;;;;;1.00;1.00;;;;;16.57;69.85;101000.47;4983204;28;45645;-87
2022/12/31 10:34:30;;;;;;;;;1.50;1.00;;;;;16.58;70.58;100991.66;4983258;28;45398;-88
2022/12/31 10:37:18;;;;;;;;;4.25;2.00;;;;;16.62;69.39;100998.44;4972496;28;45363;-87
2022/12/31 10:39:48;;;;;;;;;1.00;1.00;;;;;16.63;69.58;100987.88;5002363;28;46811;-88
2022/12/31 10:42:35;;;;;;;;;2.00;1.50;;;;;16.65;69.64;100982.53;5002666;28;45573;-88
2022/12/31 10:45:36;;;;;;;;;1.00;1.00;;;;;16.70;69.44;100983.16;4968889;28;45315;-87
2022/12/31 10:48:26;;;;;;;;;2.25;0.75;;;;;16.73;69.33;100976.88;4980953;28;45355;-88
2022/12/31 10:51:06;;;;;;;;;5.25;2.00;;;;;16.75;69.04;100968.00;5005308;28;45413;-89
2022/12/31 10:53:53;;;;;;;;;1.00;1.00;;;;;16.84;68.41;100966.69;4985842;28;45825;-88
2022/12/31 10:56:55;;;;;;;;;2.00;0.00;;;;;17.03;68.53;100966.59;5002413;28;45379;-88
2022/12/31 10:59:29;;;;;;;;;2.00;1.25;;;;;17.29;67.60;100956.47;5002815;28;45506;-87
2022/12/31 11:02:34;;;;;;;;;1.00;0.50;;;;;17.57;67.15;100969.84;5009941;28;45530;-88
2022/12/31 11:05:24;;;;;;;;;2.00;1.00;;;;;17.97;66.45;100958.91;4992344;28;45398;-88
2022/12/31 11:08:14;;;;;;;;;3.00;1.75;;;;;18.57;65.83;100943.16;5006165;28;45302;-88
2022/12/31 11:10:59;;;;;;;;;1.75;0.75;;;;;19.13;63.99;100945.97;4984782;28;45477;-88
2022/12/31 11:13:46;;;;;;;;;2.50;1.00;;;;;19.49;62.00;100944.59;4968283;28;47659;-89
2022/12/31 11:16:38;;;;;;;;;3.00;1.00;;;;;19.60;61.92;100933.38;5002081;28;45754;-89
2022/12/31 11:19:19;;;;;;;;;2.25;1.25;;;;;19.61;60.32;100942.97;4995219;28;45393;-89
2022/12/31 11:22:03;;;;;;;;;1.00;1.00;;;;;19.80;60.76;100941.81;5002157;28;45410;-89
2022/12/31 11:25:07;;;;;;;;;1.00;1.00;;;;;19.83;58.52;100958.31;5001536;28;47525;-89
2022/12/31 11:28:00;;;;;;;;;4.00;2.75;;;;;19.50;59.13;100938.41;4941136;28;45313;-88
2022/12/31 11:30:46;;;;;;;;;1.50;1.00;;;;;19.46;60.07;100936.03;4925621;28;45470;-86
2022/12/31 11:33:40;;;;;;;;;2.00;1.00;;;;;19.44;59.35;100944.03;4922276;28;45671;-88
2022/12/31 11:36:24;;;;;;;;;1.00;1.00;;;;;19.36;59.26;100943.69;4922016;28;46174;-89
2022/12/31 11:38:52;;;;;;;;;0.00;0.00;;;;;19.14;59.23;100949.44;4937516;28;45842;-88
2022/12/31 11:41:32;;;;;;;;;2.25;2.25;;;;;19.05;60.28;100932.38;4923098;28;45516;-88
2022/12/31 11:44:19;;;;;;;;;3.00;0.75;;;;;19.10;60.66;100929.47;4939463;28;45428;-89
2022/12/31 11:46:57;;;;;;;;;3.25;1.00;;;;;19.45;60.00;100934.34;4937916;28;46193;-90
2022/12/31 11:49:50;;;;;;;;;1.00;0.00;;;;;19.73;59.43;100914.97;4922083;28;45674;-89
2022/12/31 11:52:31;;;;;;;;;2.00;1.00;;;;;19.81;57.32;100936.44;4922463;28;45447;-89
2022/12/31 11:55:21;;;;;;;;;1.00;1.00;;;;;19.66;58.15;100922.41;4921297;28;45424;-89
2022/12/31 11:58:10;;;;;;;;;;;;;;;;;;;;;
2022/12/31 12:00:37;;;;;;;;;1.00;1.00;;;;;19.43;57.30;100945.00;4913129;28;72337;-89
2022/12/31 12:03:04;;;;;;;;;1.75;0.50;;;;;19.41;58.42;100928.41;4930203;28;45409;-89